Pagina principale
METAR-TAF:

METAR-TAF

Aeroporti :

Aeroporto di Magadino

Locarno, Svizzera

latitudine: 46-09-55N, longitudine: 8-52-40E, altezza: 198 m

Osservazione

Il bollettino è stato emesso 31 minuti fa, alle 15:20 UTC
Vento 5 kt da ovest, variando fra sud-ovest e nord
Temperature 22°C
Umidità 53%
Pressione 1014 hPa
Visibilità 10 km o più
Poco nuvoloso ad un'altezza di 10000 ft

METAR: LSZL 311520Z AUTO 28005KT 220V350 9999NDV FEW100 22/12 Q1014 RMK

Ora: 17:51 (15:51 UTC)


TAF: mancante

Osservazioni e previsioni meteorologiche di più di 4000 aeroporti (messaggi METAR e TAF).

Le stazioni disponibili sono rappresentate dai dischi gialli e rossi sulla carta.

Puntare il mouse per vedere il nome della stazione.

Clicca sopra per visualizzare le osservazioni e previsioni meteorologiche.

Per cambiare la mappa : fare clic sui pulsanti verdi con una croce nera per ingrandire, il pulsante verde con un trattino per diminuire, o sulla freccia verde per le mappe adiacenti.


METAR-TAF: